sensor_id;sensor_type;location;lat;lon;timestamp;pressure;altitude;pressure_sealevel;temperature;humidity
62592;BME280;48659;41.622;2.276;2022-11-15T00:00:46;99727.50;;;17.88;43.85
62592;BME280;48659;41.622;2.276;2022-11-15T00:03:15;99721.69;;;17.91;43.27
62592;BME280;48659;41.622;2.276;2022-11-15T00:05:43;99721.44;;;17.28;44.30
62592;BME280;48659;41.622;2.276;2022-11-15T00:08:10;99719.27;;;17.54;44.42
62592;BME280;48659;41.622;2.276;2022-11-15T00:10:38;99715.12;;;18.31;43.77
62592;BME280;48659;41.622;2.276;2022-11-15T00:13:06;99715.27;;;17.68;43.83
62592;BME280;48659;41.622;2.276;2022-11-15T00:15:38;99711.52;;;16.76;44.50
62592;BME280;48659;41.622;2.276;2022-11-15T00:18:10;99702.61;;;18.17;43.66
62592;BME280;48659;41.622;2.276;2022-11-15T00:20:39;99700.55;;;17.47;44.25
62592;BME280;48659;41.622;2.276;2022-11-15T00:23:07;99692.92;;;17.54;45.02
62592;BME280;48659;41.622;2.276;2022-11-15T00:25:35;99693.27;;;16.77;45.48
62592;BME280;48659;41.622;2.276;2022-11-15T00:28:03;99689.86;;;17.58;44.22
62592;BME280;48659;41.622;2.276;2022-11-15T00:30:30;99689.98;;;15.99;47.45
62592;BME280;48659;41.622;2.276;2022-11-15T00:33:01;99692.23;;;16.90;45.74
62592;BME280;48659;41.622;2.276;2022-11-15T00:35:30;99690.13;;;16.80;46.38
62592;BME280;48659;41.622;2.276;2022-11-15T00:37:57;99687.91;;;17.17;46.20
62592;BME280;48659;41.622;2.276;2022-11-15T00:40:25;99687.11;;;16.98;46.54
62592;BME280;48659;41.622;2.276;2022-11-15T00:42:52;99684.28;;;16.47;46.54
62592;BME280;48659;41.622;2.276;2022-11-15T00:45:20;99682.25;;;17.13;45.72
62592;BME280;48659;41.622;2.276;2022-11-15T00:47:48;99681.82;;;17.09;45.85
62592;BME280;48659;41.622;2.276;2022-11-15T00:50:15;99676.53;;;16.86;46.23
62592;BME280;48659;41.622;2.276;2022-11-15T00:52:43;99676.47;;;16.18;47.51
62592;BME280;48659;41.622;2.276;2022-11-15T00:55:13;99674.86;;;16.83;46.44
62592;BME280;48659;41.622;2.276;2022-11-15T00:57:41;99673.64;;;16.13;47.27
62592;BME280;48659;41.622;2.276;2022-11-15T01:00:10;99667.94;;;16.77;46.71
62592;BME280;48659;41.622;2.276;2022-11-15T01:02:37;99669.43;;;16.22;47.37
62592;BME280;48659;41.622;2.276;2022-11-15T01:05:05;99671.65;;;16.35;47.45
62592;BME280;48659;41.622;2.276;2022-11-15T01:07:32;99668.87;;;16.16;47.52
62592;BME280;48659;41.622;2.276;2022-11-15T01:10:16;99667.60;;;16.32;47.69
62592;BME280;48659;41.622;2.276;2022-11-15T01:12:44;99665.67;;;16.50;47.31
62592;BME280;48659;41.622;2.276;2022-11-15T01:15:11;99665.06;;;16.56;47.61
62592;BME280;48659;41.622;2.276;2022-11-15T01:17:39;99660.81;;;16.09;47.98
62592;BME280;48659;41.622;2.276;2022-11-15T01:20:08;99660.80;;;16.48;47.90
62592;BME280;48659;41.622;2.276;2022-11-15T01:22:35;99657.53;;;16.15;48.58
62592;BME280;48659;41.622;2.276;2022-11-15T01:25:04;99655.47;;;15.96;48.38
62592;BME280;48659;41.622;2.276;2022-11-15T01:27:32;99660.57;;;13.57;53.27
62592;BME280;48659;41.622;2.276;2022-11-15T01:29:59;99669.55;;;12.96;56.84
62592;BME280;48659;41.622;2.276;2022-11-15T01:32:26;99661.84;;;14.22;53.71
62592;BME280;48659;41.622;2.276;2022-11-15T01:34:54;99654.77;;;15.92;50.36
62592;BME280;48659;41.622;2.276;2022-11-15T01:37:21;99650.97;;;16.38;48.28
62592;BME280;48659;41.622;2.276;2022-11-15T01:39:49;99645.74;;;15.74;49.02
62592;BME280;48659;41.622;2.276;2022-11-15T01:42:16;99643.93;;;16.28;48.55
62592;BME280;48659;41.622;2.276;2022-11-15T01:44:47;99640.12;;;15.94;48.59
62592;BME280;48659;41.622;2.276;2022-11-15T01:47:17;99637.35;;;15.69;49.05
62592;BME280;48659;41.622;2.276;2022-11-15T01:49:51;99635.86;;;14.21;52.08
62592;BME280;48659;41.622;2.276;2022-11-15T01:52:24;99632.12;;;14.54;51.89
62592;BME280;48659;41.622;2.276;2022-11-15T01:54:55;99626.48;;;14.13;52.29
62592;BME280;48659;41.622;2.276;2022-11-15T01:57:23;99619.61;;;14.52;53.18
62592;BME280;48659;41.622;2.276;2022-11-15T01:59:50;99613.98;;;15.04;51.43
62592;BME280;48659;41.622;2.276;2022-11-15T02:02:18;99606.75;;;15.62;50.21
62592;BME280;48659;41.622;2.276;2022-11-15T02:04:46;99604.66;;;15.14;50.18
62592;BME280;48659;41.622;2.276;2022-11-15T02:07:17;99606.27;;;14.38;52.43
62592;BME280;48659;41.622;2.276;2022-11-15T02:09:46;99606.86;;;13.12;54.93
62592;BME280;48659;41.622;2.276;2022-11-15T02:12:16;99607.77;;;12.73;57.00
62592;BME280;48659;41.622;2.276;2022-11-15T02:14:47;99596.43;;;15.06;51.92
62592;BME280;48659;41.622;2.276;2022-11-15T02:17:30;99600.35;;;15.41;50.29
62592;BME280;48659;41.622;2.276;2022-11-15T02:20:16;99602.09;;;14.75;51.80
62592;BME280;48659;41.622;2.276;2022-11-15T02:23:04;99595.56;;;15.43;49.96
62592;BME280;48659;41.622;2.276;2022-11-15T02:25:45;99585.39;;;15.12;49.63
62592;BME280;48659;41.622;2.276;2022-11-15T02:28:57;99580.67;;;16.11;49.03
62592;BME280;48659;41.622;2.276;2022-11-15T02:31:29;99575.02;;;16.71;48.71
62592;BME280;48659;41.622;2.276;2022-11-15T02:34:04;99570.02;;;15.62;49.21
62592;BME280;48659;41.622;2.276;2022-11-15T02:36:39;99563.96;;;16.04;48.39
62592;BME280;48659;41.622;2.276;2022-11-15T02:39:13;99566.21;;;15.94;49.07
62592;BME280;48659;41.622;2.276;2022-11-15T02:41:48;99563.37;;;15.55;49.86
62592;BME280;48659;41.622;2.276;2022-11-15T02:44:20;99558.42;;;15.27;50.26
62592;BME280;48659;41.622;2.276;2022-11-15T02:46:51;99565.75;;;14.07;52.69
62592;BME280;48659;41.622;2.276;2022-11-15T02:49:19;99563.11;;;15.65;50.64
62592;BME280;48659;41.622;2.276;2022-11-15T02:51:49;99563.84;;;15.35;51.40
62592;BME280;48659;41.622;2.276;2022-11-15T02:54:21;99558.06;;;15.75;49.73
62592;BME280;48659;41.622;2.276;2022-11-15T02:56:50;99556.97;;;16.54;48.12
62592;BME280;48659;41.622;2.276;2022-11-15T02:59:33;99551.51;;;16.47;48.10
62592;BME280;48659;41.622;2.276;2022-11-15T03:02:15;99546.20;;;16.07;48.78
62592;BME280;48659;41.622;2.276;2022-11-15T03:04:52;99541.45;;;15.89;48.66
62592;BME280;48659;41.622;2.276;2022-11-15T03:07:28;99541.80;;;16.18;48.67
62592;BME280;48659;41.622;2.276;2022-11-15T03:10:03;99540.91;;;15.51;49.02
62592;BME280;48659;41.622;2.276;2022-11-15T03:12:42;99542.06;;;14.98;49.54
62592;BME280;48659;41.622;2.276;2022-11-15T03:15:18;99546.03;;;14.02;52.28
62592;BME280;48659;41.622;2.276;2022-11-15T03:17:52;99542.22;;;16.19;47.66
62592;BME280;48659;41.622;2.276;2022-11-15T03:20:23;99536.41;;;15.95;48.49
62592;BME280;48659;41.622;2.276;2022-11-15T03:22:54;99533.15;;;15.74;49.42
62592;BME280;48659;41.622;2.276;2022-11-15T03:30:07;99524.22;;;15.42;48.62
62592;BME280;48659;41.622;2.276;2022-11-15T03:32:38;99527.36;;;15.66;48.88
62592;BME280;48659;41.622;2.276;2022-11-15T03:35:10;99525.74;;;15.20;50.35
62592;BME280;48659;41.622;2.276;2022-11-15T03:37:42;99520.38;;;14.89;49.62
62592;BME280;48659;41.622;2.276;2022-11-15T03:40:12;99516.92;;;15.64;49.60
62592;BME280;48659;41.622;2.276;2022-11-15T03:42:43;99516.14;;;13.37;53.99
62592;BME280;48659;41.622;2.276;2022-11-15T03:45:16;99506.90;;;14.85;51.74
62592;BME280;48659;41.622;2.276;2022-11-15T03:47:50;99507.69;;;13.88;53.33
62592;BME280;48659;41.622;2.276;2022-11-15T03:50:20;99499.79;;;15.36;51.25
62592;BME280;48659;41.622;2.276;2022-11-15T03:52:50;99494.52;;;15.78;49.99
62592;BME280;48659;41.622;2.276;2022-11-15T03:55:19;99492.02;;;15.84;49.31
62592;BME280;48659;41.622;2.276;2022-11-15T03:57:49;99491.34;;;15.28;51.12
62592;BME280;48659;41.622;2.276;2022-11-15T04:00:17;99495.85;;;14.79;51.79
62592;BME280;48659;41.622;2.276;2022-11-15T04:02:45;99497.50;;;14.86;51.33
62592;BME280;48659;41.622;2.276;2022-11-15T04:05:12;99495.31;;;15.52;51.09
62592;BME280;48659;41.622;2.276;2022-11-15T04:07:40;99496.77;;;15.29;50.51
62592;BME280;48659;41.622;2.276;2022-11-15T04:10:09;99496.28;;;15.55;50.01
62592;BME280;48659;41.622;2.276;2022-11-15T04:12:39;99497.07;;;15.31;50.50
62592;BME280;48659;41.622;2.276;2022-11-15T04:15:09;99493.56;;;15.82;49.51
62592;BME280;48659;41.622;2.276;2022-11-15T04:17:39;99490.72;;;15.48;50.22
62592;BME280;48659;41.622;2.276;2022-11-15T04:20:09;99485.93;;;15.59;49.80
62592;BME280;48659;41.622;2.276;2022-11-15T04:22:36;99482.14;;;15.59;49.92
62592;BME280;48659;41.622;2.276;2022-11-15T04:25:04;99479.46;;;15.31;50.77
62592;BME280;48659;41.622;2.276;2022-11-15T04:27:38;99477.25;;;14.84;50.77
62592;BME280;48659;41.622;2.276;2022-11-15T04:30:07;99473.73;;;15.47;50.19
62592;BME280;48659;41.622;2.276;2022-11-15T04:32:34;99472.75;;;15.45;50.32
62592;BME280;48659;41.622;2.276;2022-11-15T04:35:02;99469.17;;;15.28;50.56
62592;BME280;48659;41.622;2.276;2022-11-15T04:37:30;99467.41;;;15.57;50.13
62592;BME280;48659;41.622;2.276;2022-11-15T04:39:58;99465.14;;;14.28;52.15
62592;BME280;48659;41.622;2.276;2022-11-15T04:42:25;99462.37;;;15.25;50.72
62592;BME280;48659;41.622;2.276;2022-11-15T04:44:52;99461.58;;;15.44;50.36
62592;BME280;48659;41.622;2.276;2022-11-15T04:47:19;99461.29;;;15.67;50.96
62592;BME280;48659;41.622;2.276;2022-11-15T04:49:46;99461.62;;;15.12;51.02
62592;BME280;48659;41.622;2.276;2022-11-15T04:52:14;99462.02;;;15.24;50.49
62592;BME280;48659;41.622;2.276;2022-11-15T04:54:41;99459.01;;;14.80;50.71
62592;BME280;48659;41.622;2.276;2022-11-15T04:57:09;99454.58;;;14.43;52.60
62592;BME280;48659;41.622;2.276;2022-11-15T04:59:36;99450.88;;;15.03;51.44
62592;BME280;48659;41.622;2.276;2022-11-15T05:02:03;99450.50;;;15.25;51.00
62592;BME280;48659;41.622;2.276;2022-11-15T05:04:38;99448.35;;;14.70;50.69
62592;BME280;48659;41.622;2.276;2022-11-15T05:07:06;99446.22;;;15.70;50.11
62592;BME280;48659;41.622;2.276;2022-11-15T05:09:33;99440.80;;;15.41;50.19
62592;BME280;48659;41.622;2.276;2022-11-15T05:12:01;99440.96;;;15.64;50.42
62592;BME280;48659;41.622;2.276;2022-11-15T05:14:29;99440.68;;;15.74;50.57
62592;BME280;48659;41.622;2.276;2022-11-15T05:16:56;99434.25;;;15.65;50.48
62592;BME280;48659;41.622;2.276;2022-11-15T05:19:24;99433.90;;;15.64;50.91
62592;BME280;48659;41.622;2.276;2022-11-15T05:21:52;99433.24;;;15.07;51.13
62592;BME280;48659;41.622;2.276;2022-11-15T05:24:20;99435.56;;;15.47;50.73
62592;BME280;48659;41.622;2.276;2022-11-15T05:26:48;99432.56;;;15.19;51.22
62592;BME280;48659;41.622;2.276;2022-11-15T05:29:15;99436.66;;;15.44;50.95
62592;BME280;48659;41.622;2.276;2022-11-15T05:31:42;99438.50;;;15.48;50.84
62592;BME280;48659;41.622;2.276;2022-11-15T05:34:10;99435.45;;;15.22;51.28
62592;BME280;48659;41.622;2.276;2022-11-15T05:36:40;99437.01;;;15.26;50.75
62592;BME280;48659;41.622;2.276;2022-11-15T05:39:09;99434.60;;;15.95;50.05
62592;BME280;48659;41.622;2.276;2022-11-15T05:41:39;99433.75;;;15.52;50.18
62592;BME280;48659;41.622;2.276;2022-11-15T05:44:11;99439.09;;;15.81;49.95
62592;BME280;48659;41.622;2.276;2022-11-15T05:46:42;99437.53;;;16.20;49.42
62592;BME280;48659;41.622;2.276;2022-11-15T05:49:13;99436.08;;;15.84;50.26
62592;BME280;48659;41.622;2.276;2022-11-15T05:51:44;99427.97;;;16.38;48.98
62592;BME280;48659;41.622;2.276;2022-11-15T05:54:13;99432.64;;;16.03;49.33
62592;BME280;48659;41.622;2.276;2022-11-15T05:56:41;99430.46;;;15.93;49.56
62592;BME280;48659;41.622;2.276;2022-11-15T05:59:10;99431.10;;;15.79;49.87
62592;BME280;48659;41.622;2.276;2022-11-15T06:01:38;99427.74;;;15.93;49.25
62592;BME280;48659;41.622;2.276;2022-11-15T06:04:06;99428.73;;;15.30;50.60
62592;BME280;48659;41.622;2.276;2022-11-15T06:06:33;99427.82;;;14.71;51.48
62592;BME280;48659;41.622;2.276;2022-11-15T06:09:01;99427.03;;;14.40;52.26
62592;BME280;48659;41.622;2.276;2022-11-15T06:11:28;99426.40;;;15.30;50.64
62592;BME280;48659;41.622;2.276;2022-11-15T06:13:56;99430.31;;;15.68;50.68
62592;BME280;48659;41.622;2.276;2022-11-15T06:16:23;99430.86;;;15.38;51.87
62592;BME280;48659;41.622;2.276;2022-11-15T06:18:50;99434.59;;;13.85;54.59
62592;BME280;48659;41.622;2.276;2022-11-15T06:21:18;99427.71;;;15.18;51.03
62592;BME280;48659;41.622;2.276;2022-11-15T06:23:45;99427.12;;;16.20;50.15
62592;BME280;48659;41.622;2.276;2022-11-15T06:26:12;99424.21;;;15.74;49.83
62592;BME280;48659;41.622;2.276;2022-11-15T06:28:40;99423.71;;;15.51;50.20
62592;BME280;48659;41.622;2.276;2022-11-15T06:31:10;99419.69;;;15.52;50.06
62592;BME280;48659;41.622;2.276;2022-11-15T06:33:38;99420.68;;;15.90;49.33
62592;BME280;48659;41.622;2.276;2022-11-15T06:36:08;99416.21;;;16.51;48.35
62592;BME280;48659;41.622;2.276;2022-11-15T06:38:39;99414.12;;;15.25;48.57
62592;BME280;48659;41.622;2.276;2022-11-15T06:41:09;99412.57;;;16.38;47.93
62592;BME280;48659;41.622;2.276;2022-11-15T06:43:37;99413.09;;;15.88;48.16
62592;BME280;48659;41.622;2.276;2022-11-15T06:46:05;99417.47;;;16.77;47.59
62592;BME280;48659;41.622;2.276;2022-11-15T06:48:39;99413.33;;;16.11;46.95
62592;BME280;48659;41.622;2.276;2022-11-15T06:51:06;99413.59;;;16.77;47.02
62592;BME280;48659;41.622;2.276;2022-11-15T06:53:34;99423.81;;;15.69;48.93
62592;BME280;48659;41.622;2.276;2022-11-15T06:56:02;99422.77;;;16.46;48.02
62592;BME280;48659;41.622;2.276;2022-11-15T06:58:41;99426.87;;;16.85;47.46
62592;BME280;48659;41.622;2.276;2022-11-15T07:01:10;99428.35;;;16.70;47.58
62592;BME280;48659;41.622;2.276;2022-11-15T07:03:40;99426.23;;;16.81;46.81
62592;BME280;48659;41.622;2.276;2022-11-15T07:06:09;99433.29;;;16.68;47.68
62592;BME280;48659;41.622;2.276;2022-11-15T07:08:37;99425.96;;;16.66;46.83
62592;BME280;48659;41.622;2.276;2022-11-15T07:11:06;99432.64;;;16.76;46.81
62592;BME280;48659;41.622;2.276;2022-11-15T07:13:35;99425.92;;;16.71;46.65
62592;BME280;48659;41.622;2.276;2022-11-15T07:16:03;99428.87;;;16.57;46.90
62592;BME280;48659;41.622;2.276;2022-11-15T07:18:40;99427.47;;;16.19;46.78
62592;BME280;48659;41.622;2.276;2022-11-15T07:21:09;99420.14;;;17.13;46.25
62592;BME280;48659;41.622;2.276;2022-11-15T07:23:37;99418.52;;;16.68;46.29
62592;BME280;48659;41.622;2.276;2022-11-15T07:26:05;99415.92;;;16.92;46.08
62592;BME280;48659;41.622;2.276;2022-11-15T07:28:32;99425.82;;;16.85;45.99
62592;BME280;48659;41.622;2.276;2022-11-15T07:31:03;99439.85;;;15.46;48.34
62592;BME280;48659;41.622;2.276;2022-11-15T07:33:32;99435.99;;;16.91;46.45
62592;BME280;48659;41.622;2.276;2022-11-15T07:36:00;99446.83;;;17.26;46.32
62592;BME280;48659;41.622;2.276;2022-11-15T07:38:28;99455.25;;;16.49;47.50
62592;BME280;48659;41.622;2.276;2022-11-15T07:40:57;99458.17;;;16.30;47.79
62592;BME280;48659;41.622;2.276;2022-11-15T07:43:24;99443.86;;;16.87;46.62
62592;BME280;48659;41.622;2.276;2022-11-15T07:45:52;99444.67;;;17.32;45.96
62592;BME280;48659;41.622;2.276;2022-11-15T07:48:19;99444.92;;;15.64;48.93
62592;BME280;48659;41.622;2.276;2022-11-15T07:50:47;99446.08;;;16.61;47.06
62592;BME280;48659;41.622;2.276;2022-11-15T07:53:14;99437.09;;;16.94;46.80
62592;BME280;48659;41.622;2.276;2022-11-15T07:55:41;99436.25;;;17.35;45.98
62592;BME280;48659;41.622;2.276;2022-11-15T07:58:10;99440.38;;;17.35;45.91
62592;BME280;48659;41.622;2.276;2022-11-15T08:00:38;99447.32;;;15.91;48.12
62592;BME280;48659;41.622;2.276;2022-11-15T08:03:07;99441.91;;;17.48;45.92
62592;BME280;48659;41.622;2.276;2022-11-15T08:05:37;99438.01;;;17.30;45.96
62592;BME280;48659;41.622;2.276;2022-11-15T08:08:05;99436.41;;;17.39;45.78
62592;BME280;48659;41.622;2.276;2022-11-15T08:10:33;99436.19;;;17.50;45.12
62592;BME280;48659;41.622;2.276;2022-11-15T08:13:03;99432.24;;;18.17;44.79
62592;BME280;48659;41.622;2.276;2022-11-15T08:15:32;99428.49;;;17.97;45.30
62592;BME280;48659;41.622;2.276;2022-11-15T08:18:05;99426.22;;;17.51;45.12
62592;BME280;48659;41.622;2.276;2022-11-15T08:20:33;99426.45;;;16.78;46.62
62592;BME280;48659;41.622;2.276;2022-11-15T08:23:01;99423.22;;;17.49;46.12
62592;BME280;48659;41.622;2.276;2022-11-15T08:25:31;99421.29;;;17.40;45.33
62592;BME280;48659;41.622;2.276;2022-11-15T08:28:00;99429.27;;;17.94;45.01
62592;BME280;48659;41.622;2.276;2022-11-15T08:30:33;99438.29;;;17.90;44.66
62592;BME280;48659;41.622;2.276;2022-11-15T08:33:01;99428.11;;;17.77;44.80
62592;BME280;48659;41.622;2.276;2022-11-15T08:35:29;99415.75;;;18.29;44.09
62592;BME280;48659;41.622;2.276;2022-11-15T08:37:56;99411.37;;;18.09;44.28
62592;BME280;48659;41.622;2.276;2022-11-15T08:40:24;99412.31;;;18.12;44.53
62592;BME280;48659;41.622;2.276;2022-11-15T08:42:51;99418.34;;;17.61;45.23
62592;BME280;48659;41.622;2.276;2022-11-15T08:45:18;99414.22;;;17.77;45.02
62592;BME280;48659;41.622;2.276;2022-11-15T08:47:46;99414.36;;;18.23;44.32
62592;BME280;48659;41.622;2.276;2022-11-15T08:50:13;99408.96;;;18.54;43.81
62592;BME280;48659;41.622;2.276;2022-11-15T08:52:39;99403.96;;;18.36;43.81
62592;BME280;48659;41.622;2.276;2022-11-15T08:55:08;99407.51;;;18.45;43.59
62592;BME280;48659;41.622;2.276;2022-11-15T08:57:35;99405.60;;;18.81;43.47
62592;BME280;48659;41.622;2.276;2022-11-15T09:00:05;99402.59;;;18.86;42.67
62592;BME280;48659;41.622;2.276;2022-11-15T09:02:32;99399.42;;;18.92;42.59
62592;BME280;48659;41.622;2.276;2022-11-15T09:05:00;99393.52;;;19.10;42.79
62592;BME280;48659;41.622;2.276;2022-11-15T09:07:26;99392.20;;;19.06;42.91
62592;BME280;48659;41.622;2.276;2022-11-15T09:09:55;99390.70;;;19.17;42.35
62592;BME280;48659;41.622;2.276;2022-11-15T09:12:22;99386.39;;;18.99;42.49
62592;BME280;48659;41.622;2.276;2022-11-15T09:14:49;99387.23;;;19.39;42.44
62592;BME280;48659;41.622;2.276;2022-11-15T09:17:16;99381.11;;;18.57;43.30
62592;BME280;48659;41.622;2.276;2022-11-15T09:19:43;99378.90;;;18.64;43.23
62592;BME280;48659;41.622;2.276;2022-11-15T09:22:11;99382.39;;;19.25;42.85
62592;BME280;48659;41.622;2.276;2022-11-15T09:24:38;99387.63;;;19.11;42.67
62592;BME280;48659;41.622;2.276;2022-11-15T09:27:06;99383.74;;;19.83;41.64
62592;BME280;48659;41.622;2.276;2022-11-15T09:29:34;99381.10;;;19.48;42.24
62592;BME280;48659;41.622;2.276;2022-11-15T09:32:01;99373.85;;;20.12;41.16
62592;BME280;48659;41.622;2.276;2022-11-15T09:34:28;99370.24;;;20.22;41.15
62592;BME280;48659;41.622;2.276;2022-11-15T09:36:55;99370.51;;;20.14;41.40
62592;BME280;48659;41.622;2.276;2022-11-15T09:39:22;99366.15;;;19.24;42.60
62592;BME280;48659;41.622;2.276;2022-11-15T09:42:03;99372.51;;;20.16;41.41
62592;BME280;48659;41.622;2.276;2022-11-15T09:44:42;99360.26;;;19.95;41.02
62592;BME280;48659;41.622;2.276;2022-11-15T09:47:31;99358.76;;;19.97;41.62
62592;BME280;48659;41.622;2.276;2022-11-15T09:50:10;99356.43;;;20.26;41.34
62592;BME280;48659;41.622;2.276;2022-11-15T09:52:42;99353.89;;;19.92;41.63
62592;BME280;48659;41.622;2.276;2022-11-15T09:55:12;99355.18;;;17.65;45.48
62592;BME280;48659;41.622;2.276;2022-11-15T09:57:46;99350.45;;;18.06;45.04
62592;BME280;48659;41.622;2.276;2022-11-15T10:00:20;99349.09;;;18.79;43.59
62592;BME280;48659;41.622;2.276;2022-11-15T10:03:00;99349.09;;;19.52;42.61
62592;BME280;48659;41.622;2.276;2022-11-15T10:05:33;99347.72;;;18.25;43.45
62592;BME280;48659;41.622;2.276;2022-11-15T10:08:13;99346.66;;;18.08;44.78
62592;BME280;48659;41.622;2.276;2022-11-15T10:10:45;99348.12;;;17.95;43.88
62592;BME280;48659;41.622;2.276;2022-11-15T10:13:31;99346.18;;;17.69;44.10
62592;BME280;48659;41.622;2.276;2022-11-15T10:16:07;99335.92;;;18.65;42.49
62592;BME280;48659;41.622;2.276;2022-11-15T10:18:46;99342.17;;;18.13;42.76
62592;BME280;48659;41.622;2.276;2022-11-15T10:21:20;99338.73;;;18.00;42.58
62592;BME280;48659;41.622;2.276;2022-11-15T10:23:48;99345.14;;;17.72;44.04
62592;BME280;48659;41.622;2.276;2022-11-15T10:26:18;99339.62;;;18.27;43.09
62592;BME280;48659;41.622;2.276;2022-11-15T10:28:45;99336.50;;;17.83;43.20
62592;BME280;48659;41.622;2.276;2022-11-15T10:31:22;99329.62;;;18.62;41.87
62592;BME280;48659;41.622;2.276;2022-11-15T10:33:51;99325.04;;;18.23;41.93
62592;BME280;48659;41.622;2.276;2022-11-15T10:36:22;99331.93;;;17.76;43.51
62592;BME280;48659;41.622;2.276;2022-11-15T10:38:53;99328.88;;;19.01;41.33
62592;BME280;48659;41.622;2.276;2022-11-15T10:41:22;99320.28;;;18.10;42.57
62592;BME280;48659;41.622;2.276;2022-11-15T10:44:12;99316.28;;;18.30;42.24
62592;BME280;48659;41.622;2.276;2022-11-15T10:46:46;99305.95;;;18.46;41.93
62592;BME280;48659;41.622;2.276;2022-11-15T10:49:16;99315.07;;;17.79;43.38
62592;BME280;48659;41.622;2.276;2022-11-15T10:51:46;99302.11;;;18.86;40.97
62592;BME280;48659;41.622;2.276;2022-11-15T10:54:19;99298.77;;;18.67;41.26
62592;BME280;48659;41.622;2.276;2022-11-15T10:56:51;99290.51;;;19.22;40.11
62592;BME280;48659;41.622;2.276;2022-11-15T10:59:25;99289.36;;;18.02;41.87
62592;BME280;48659;41.622;2.276;2022-11-15T11:01:53;99286.31;;;19.37;40.52
62592;BME280;48659;41.622;2.276;2022-11-15T11:04:21;99268.28;;;19.76;40.75
62592;BME280;48659;41.622;2.276;2022-11-15T11:06:51;99265.41;;;18.40;41.33
62592;BME280;48659;41.622;2.276;2022-11-15T11:09:30;99266.34;;;18.95;41.16
62592;BME280;48659;41.622;2.276;2022-11-15T11:11:59;99260.31;;;18.95;41.26
62592;BME280;48659;41.622;2.276;2022-11-15T11:14:29;99249.58;;;18.53;41.37
62592;BME280;48659;41.622;2.276;2022-11-15T11:17:04;99251.24;;;18.98;40.99
62592;BME280;48659;41.622;2.276;2022-11-15T11:20:13;99240.74;;;18.26;41.48
62592;BME280;48659;41.622;2.276;2022-11-15T11:22:56;99239.00;;;17.86;42.42
62592;BME280;48659;41.622;2.276;2022-11-15T11:25:34;99233.73;;;18.99;40.82
62592;BME280;48659;41.622;2.276;2022-11-15T11:28:17;99229.80;;;18.34;42.02
62592;BME280;48659;41.622;2.276;2022-11-15T11:30:58;99227.63;;;18.54;41.56
62592;BME280;48659;41.622;2.276;2022-11-15T11:33:32;99220.38;;;18.51;41.87
62592;BME280;48659;41.622;2.276;2022-11-15T11:36:09;99209.91;;;19.92;39.25
62592;BME280;48659;41.622;2.276;2022-11-15T11:38:47;99203.81;;;19.57;39.56
62592;BME280;48659;41.622;2.276;2022-11-15T11:41:27;99202.51;;;19.09;40.14
62592;BME280;48659;41.622;2.276;2022-11-15T11:44:10;99190.77;;;19.78;39.35
62592;BME280;48659;41.622;2.276;2022-11-15T11:46:49;99188.07;;;20.59;37.47
62592;BME280;48659;41.622;2.276;2022-11-15T11:49:29;99183.00;;;20.05;38.81
62592;BME280;48659;41.622;2.276;2022-11-15T11:52:03;99178.61;;;19.81;38.74
62592;BME280;48659;41.622;2.276;2022-11-15T11:54:38;99170.91;;;20.02;38.67
62592;BME280;48659;41.622;2.276;2022-11-15T11:57:15;99170.00;;;19.49;38.91
62592;BME280;48659;41.622;2.276;2022-11-15T11:59:48;99169.21;;;19.33;39.80
62592;BME280;48659;41.622;2.276;2022-11-15T12:02:27;99160.51;;;20.21;37.98
62592;BME280;48659;41.622;2.276;2022-11-15T12:05:04;99158.26;;;19.89;38.43
62592;BME280;48659;41.622;2.276;2022-11-15T12:07:36;99144.27;;;19.94;38.06
62592;BME280;48659;41.622;2.276;2022-11-15T12:10:14;99147.05;;;18.51;39.74
62592;BME280;48659;41.622;2.276;2022-11-15T12:12:50;99142.22;;;18.95;40.28
62592;BME280;48659;41.622;2.276;2022-11-15T12:15:23;99143.48;;;18.54;40.76
62592;BME280;48659;41.622;2.276;2022-11-15T12:17:51;99132.98;;;20.00;38.54
62592;BME280;48659;41.622;2.276;2022-11-15T12:20:21;99133.49;;;18.73;40.28
62592;BME280;48659;41.622;2.276;2022-11-15T12:22:53;99133.25;;;19.45;38.89
62592;BME280;48659;41.622;2.276;2022-11-15T12:25:25;99129.09;;;19.52;38.94
62592;BME280;48659;41.622;2.276;2022-11-15T12:27:57;99129.36;;;18.78;39.71
62592;BME280;48659;41.622;2.276;2022-11-15T12:30:37;99125.25;;;19.00;39.47
62592;BME280;48659;41.622;2.276;2022-11-15T12:33:44;99121.29;;;19.46;38.25
62592;BME280;48659;41.622;2.276;2022-11-15T12:36:39;99120.56;;;19.38;38.36
62592;BME280;48659;41.622;2.276;2022-11-15T12:39:09;99109.78;;;20.26;36.48
62592;BME280;48659;41.622;2.276;2022-11-15T12:41:37;99111.12;;;20.43;36.05
62592;BME280;48659;41.622;2.276;2022-11-15T12:44:11;99108.34;;;19.40;37.53
62592;BME280;48659;41.622;2.276;2022-11-15T12:47:44;99104.84;;;20.18;36.85
62592;BME280;48659;41.622;2.276;2022-11-15T12:50:12;99113.03;;;19.50;37.12
62592;BME280;48659;41.622;2.276;2022-11-15T12:53:26;99109.52;;;18.49;38.73
62592;BME280;48659;41.622;2.276;2022-11-15T12:56:17;99112.76;;;19.12;37.70
62592;BME280;48659;41.622;2.276;2022-11-15T12:58:46;99101.99;;;19.23;37.54
62592;BME280;48659;41.622;2.276;2022-11-15T13:01:57;99099.59;;;19.04;37.70
62592;BME280;48659;41.622;2.276;2022-11-15T13:04:28;99091.91;;;19.31;37.49
62592;BME280;48659;41.622;2.276;2022-11-15T13:06:59;99070.69;;;19.63;37.29
62592;BME280;48659;41.622;2.276;2022-11-15T13:09:59;99067.28;;;20.32;36.52
62592;BME280;48659;41.622;2.276;2022-11-15T13:13:00;99057.25;;;20.55;35.13
62592;BME280;48659;41.622;2.276;2022-11-15T13:15:33;99061.03;;;20.36;35.60
62592;BME280;48659;41.622;2.276;2022-11-15T13:18:40;99052.58;;;19.57;36.14
62592;BME280;48659;41.622;2.276;2022-11-15T13:21:24;99052.68;;;18.86;38.50
62592;BME280;48659;41.622;2.276;2022-11-15T13:23:53;99047.66;;;19.62;37.20
62592;BME280;48659;41.622;2.276;2022-11-15T13:26:21;99048.33;;;19.75;37.12
62592;BME280;48659;41.622;2.276;2022-11-15T13:28:51;99037.65;;;19.22;37.97